sensor_id;sensor_type;location;lat;lon;timestamp;temperature;humidity
71304;DHT22;59091;47.446;19.148;2023-02-11T00:00:49;-1.11;68.27
71304;DHT22;59091;47.446;19.148;2023-02-11T00:03:15;-1.09;68.14
71304;DHT22;59091;47.446;19.148;2023-02-11T00:05:40;-1.09;68.06
71304;DHT22;59091;47.446;19.148;2023-02-11T00:08:06;-1.08;67.99
71304;DHT22;59091;47.446;19.148;2023-02-11T00:10:31;-1.09;67.74
71304;DHT22;59091;47.446;19.148;2023-02-11T00:12:57;-1.11;67.49
71304;DHT22;59091;47.446;19.148;2023-02-11T00:15:22;-1.12;67.49
71304;DHT22;59091;47.446;19.148;2023-02-11T00:17:47;-1.15;67.65
71304;DHT22;59091;47.446;19.148;2023-02-11T00:20:13;-1.15;67.56
71304;DHT22;59091;47.446;19.148;2023-02-11T00:22:39;-1.16;67.31
71304;DHT22;59091;47.446;19.148;2023-02-11T00:25:04;-1.21;67.50
71304;DHT22;59091;47.446;19.148;2023-02-11T00:27:30;-1.22;67.43
71304;DHT22;59091;47.446;19.148;2023-02-11T00:29:55;-1.22;67.54
71304;DHT22;59091;47.446;19.148;2023-02-11T00:32:21;-1.25;67.59
71304;DHT22;59091;47.446;19.148;2023-02-11T00:34:46;-1.25;67.53
71304;DHT22;59091;47.446;19.148;2023-02-11T00:37:12;-1.22;67.49
71304;DHT22;59091;47.446;19.148;2023-02-11T00:39:38;-1.34;67.79
71304;DHT22;59091;47.446;19.148;2023-02-11T00:42:03;-1.27;67.83
71304;DHT22;59091;47.446;19.148;2023-02-11T00:44:29;-1.34;67.97
71304;DHT22;59091;47.446;19.148;2023-02-11T00:46:54;-1.31;68.11
71304;DHT22;59091;47.446;19.148;2023-02-11T00:49:20;-1.35;68.10
71304;DHT22;59091;47.446;19.148;2023-02-11T00:51:45;-1.35;68.04
71304;DHT22;59091;47.446;19.148;2023-02-11T00:54:11;-1.34;67.74
71304;DHT22;59091;47.446;19.148;2023-02-11T00:56:36;-1.39;67.71
71304;DHT22;59091;47.446;19.148;2023-02-11T00:59:02;-1.35;67.91
71304;DHT22;59091;47.446;19.148;2023-02-11T01:01:27;-1.39;67.98
71304;DHT22;59091;47.446;19.148;2023-02-11T01:03:53;-1.38;68.20
71304;DHT22;59091;47.446;19.148;2023-02-11T01:06:18;-1.39;68.38
71304;DHT22;59091;47.446;19.148;2023-02-11T01:08:44;-1.41;68.20
71304;DHT22;59091;47.446;19.148;2023-02-11T01:11:16;-1.48;68.15
71304;DHT22;59091;47.446;19.148;2023-02-11T01:13:42;-1.50;68.19
71304;DHT22;59091;47.446;19.148;2023-02-11T01:16:08;-1.52;68.59
71304;DHT22;59091;47.446;19.148;2023-02-11T01:18:34;-1.48;68.56
71304;DHT22;59091;47.446;19.148;2023-02-11T01:21:00;-1.50;68.42
71304;DHT22;59091;47.446;19.148;2023-02-11T01:23:26;-1.46;68.45
71304;DHT22;59091;47.446;19.148;2023-02-11T01:25:51;-1.53;68.83
71304;DHT22;59091;47.446;19.148;2023-02-11T01:28:22;-1.46;68.59
71304;DHT22;59091;47.446;19.148;2023-02-11T01:30:48;-1.48;68.38
71304;DHT22;59091;47.446;19.148;2023-02-11T01:33:14;-1.49;68.69
71304;DHT22;59091;47.446;19.148;2023-02-11T01:35:40;-1.50;68.81
71304;DHT22;59091;47.446;19.148;2023-02-11T01:38:06;-1.50;68.85
71304;DHT22;59091;47.446;19.148;2023-02-11T01:40:32;-1.50;68.51
71304;DHT22;59091;47.446;19.148;2023-02-11T01:42:58;-1.49;68.16
71304;DHT22;59091;47.446;19.148;2023-02-11T01:48:17;-1.58;68.13
71304;DHT22;59091;47.446;19.148;2023-02-11T01:50:45;-1.56;68.75
71304;DHT22;59091;47.446;19.148;2023-02-11T01:53:11;-1.55;69.31
71304;DHT22;59091;47.446;19.148;2023-02-11T01:55:55;-1.59;69.85
71304;DHT22;59091;47.446;19.148;2023-02-11T01:58:42;-1.58;69.33
71304;DHT22;59091;47.446;19.148;2023-02-11T02:01:10;-1.62;69.07
71304;DHT22;59091;47.446;19.148;2023-02-11T02:03:40;-1.60;68.62
71304;DHT22;59091;47.446;19.148;2023-02-11T02:06:14;-1.62;68.58
71304;DHT22;59091;47.446;19.148;2023-02-11T02:09:03;-1.70;68.56
71304;DHT22;59091;47.446;19.148;2023-02-11T02:11:30;-1.69;68.77
71304;DHT22;59091;47.446;19.148;2023-02-11T02:13:55;-1.67;68.64
71304;DHT22;59091;47.446;19.148;2023-02-11T02:16:21;-1.67;68.37
71304;DHT22;59091;47.446;19.148;2023-02-11T02:22:31;-1.81;68.41
71304;DHT22;59091;47.446;19.148;2023-02-11T02:27:49;-1.80;68.21
71304;DHT22;59091;47.446;19.148;2023-02-11T02:33:37;-1.86;68.61
71304;DHT22;59091;47.446;19.148;2023-02-11T02:38:58;-1.83;68.70
71304;DHT22;59091;47.446;19.148;2023-02-11T02:41:28;-1.83;68.81
71304;DHT22;59091;47.446;19.148;2023-02-11T02:43:55;-1.83;68.53
71304;DHT22;59091;47.446;19.148;2023-02-11T02:46:26;-1.87;68.65
71304;DHT22;59091;47.446;19.148;2023-02-11T02:48:53;-1.87;68.42
71304;DHT22;59091;47.446;19.148;2023-02-11T03:02:15;-1.91;69.33
71304;DHT22;59091;47.446;19.148;2023-02-11T03:05:00;-1.93;69.18
71304;DHT22;59091;47.446;19.148;2023-02-11T03:07:40;-1.93;69.13
71304;DHT22;59091;47.446;19.148;2023-02-11T03:10:14;-1.97;69.19
71304;DHT22;59091;47.446;19.148;2023-02-11T03:12:41;-2.13;69.27
71304;DHT22;59091;47.446;19.148;2023-02-11T03:15:09;-2.00;69.20
71304;DHT22;59091;47.446;19.148;2023-02-11T03:17:38;-1.97;69.01
71304;DHT22;59091;47.446;19.148;2023-02-11T03:20:06;-2.00;69.01
71304;DHT22;59091;47.446;19.148;2023-02-11T03:22:40;-1.95;68.87
71304;DHT22;59091;47.446;19.148;2023-02-11T03:25:07;-1.97;68.92
71304;DHT22;59091;47.446;19.148;2023-02-11T03:30:25;-2.00;69.38
71304;DHT22;59091;47.446;19.148;2023-02-11T03:32:55;-2.03;68.96
71304;DHT22;59091;47.446;19.148;2023-02-11T03:35:35;-2.07;68.58
71304;DHT22;59091;47.446;19.148;2023-02-11T03:38:10;-2.05;68.64
71304;DHT22;59091;47.446;19.148;2023-02-11T03:40:39;-2.04;68.95
71304;DHT22;59091;47.446;19.148;2023-02-11T03:45:37;-2.08;69.31
71304;DHT22;59091;47.446;19.148;2023-02-11T03:48:07;-2.10;69.18
71304;DHT22;59091;47.446;19.148;2023-02-11T03:50:36;-2.07;69.42
71304;DHT22;59091;47.446;19.148;2023-02-11T03:53:03;-2.04;69.51
71304;DHT22;59091;47.446;19.148;2023-02-11T03:55:32;-2.14;70.16
71304;DHT22;59091;47.446;19.148;2023-02-11T03:57:58;-2.13;69.98
71304;DHT22;59091;47.446;19.148;2023-02-11T04:00:33;-2.17;69.64
71304;DHT22;59091;47.446;19.148;2023-02-11T04:03:01;-2.14;69.38
71304;DHT22;59091;47.446;19.148;2023-02-11T04:05:26;-2.15;69.27
71304;DHT22;59091;47.446;19.148;2023-02-11T04:07:52;-2.15;69.18
71304;DHT22;59091;47.446;19.148;2023-02-11T04:10:17;-2.17;69.10
71304;DHT22;59091;47.446;19.148;2023-02-11T04:12:43;-2.17;69.24
71304;DHT22;59091;47.446;19.148;2023-02-11T04:15:08;-2.15;69.07
71304;DHT22;59091;47.446;19.148;2023-02-11T04:17:34;-2.20;69.06
71304;DHT22;59091;47.446;19.148;2023-02-11T04:19:59;-2.21;69.08
71304;DHT22;59091;47.446;19.148;2023-02-11T04:22:25;-2.27;69.07
71304;DHT22;59091;47.446;19.148;2023-02-11T04:24:50;-2.20;69.06
71304;DHT22;59091;47.446;19.148;2023-02-11T04:27:16;-2.24;68.84
71304;DHT22;59091;47.446;19.148;2023-02-11T04:29:41;-2.27;69.06
71304;DHT22;59091;47.446;19.148;2023-02-11T04:32:07;-2.30;69.02
71304;DHT22;59091;47.446;19.148;2023-02-11T04:34:33;-2.30;69.10
71304;DHT22;59091;47.446;19.148;2023-02-11T04:36:58;-2.31;68.94
71304;DHT22;59091;47.446;19.148;2023-02-11T04:39:24;-2.30;68.87
71304;DHT22;59091;47.446;19.148;2023-02-11T04:41:49;-2.30;68.80
71304;DHT22;59091;47.446;19.148;2023-02-11T04:44:15;-2.31;68.73
71304;DHT22;59091;47.446;19.148;2023-02-11T04:46:40;-2.31;68.58
71304;DHT22;59091;47.446;19.148;2023-02-11T04:49:05;-2.35;68.55
71304;DHT22;59091;47.446;19.148;2023-02-11T04:51:31;-2.35;68.66
71304;DHT22;59091;47.446;19.148;2023-02-11T04:53:56;-2.37;68.80
71304;DHT22;59091;47.446;19.148;2023-02-11T04:56:22;-2.37;69.13
71304;DHT22;59091;47.446;19.148;2023-02-11T04:58:47;-2.38;69.40
71304;DHT22;59091;47.446;19.148;2023-02-11T05:01:14;-2.37;69.32
71304;DHT22;59091;47.446;19.148;2023-02-11T05:03:40;-2.38;69.17
71304;DHT22;59091;47.446;19.148;2023-02-11T05:06:07;-2.38;68.99
71304;DHT22;59091;47.446;19.148;2023-02-11T05:08:33;-2.41;69.01
71304;DHT22;59091;47.446;19.148;2023-02-11T05:10:58;-2.44;69.04
71304;DHT22;59091;47.446;19.148;2023-02-11T05:13:26;-2.46;69.00
71304;DHT22;59091;47.446;19.148;2023-02-11T05:15:52;-2.44;68.83
71304;DHT22;59091;47.446;19.148;2023-02-11T05:18:18;-2.46;69.34
71304;DHT22;59091;47.446;19.148;2023-02-11T05:20:43;-2.48;69.39
71304;DHT22;59091;47.446;19.148;2023-02-11T05:23:10;-2.49;69.05
71304;DHT22;59091;47.446;19.148;2023-02-11T05:25:35;-2.49;69.28
71304;DHT22;59091;47.446;19.148;2023-02-11T05:28:01;-2.52;69.26
71304;DHT22;59091;47.446;19.148;2023-02-11T05:30:27;-2.55;69.17
71304;DHT22;59091;47.446;19.148;2023-02-11T05:32:52;-2.55;69.40
71304;DHT22;59091;47.446;19.148;2023-02-11T05:35:18;-2.51;69.36
71304;DHT22;59091;47.446;19.148;2023-02-11T05:37:43;-2.51;69.76
71304;DHT22;59091;47.446;19.148;2023-02-11T05:40:09;-2.58;70.66
71304;DHT22;59091;47.446;19.148;2023-02-11T05:42:35;-2.54;70.75
71304;DHT22;59091;47.446;19.148;2023-02-11T05:45:00;-2.55;70.27
71304;DHT22;59091;47.446;19.148;2023-02-11T05:47:26;-2.49;69.92
71304;DHT22;59091;47.446;19.148;2023-02-11T05:49:51;-2.54;69.74
71304;DHT22;59091;47.446;19.148;2023-02-11T05:52:18;-2.55;69.48
71304;DHT22;59091;47.446;19.148;2023-02-11T05:54:44;-2.52;69.41
71304;DHT22;59091;47.446;19.148;2023-02-11T05:57:09;-2.58;69.57
71304;DHT22;59091;47.446;19.148;2023-02-11T05:59:34;-2.54;69.88
71304;DHT22;59091;47.446;19.148;2023-02-11T06:02:00;-2.58;69.62
71304;DHT22;59091;47.446;19.148;2023-02-11T06:04:26;-2.56;69.70
71304;DHT22;59091;47.446;19.148;2023-02-11T06:06:51;-2.52;69.48
71304;DHT22;59091;47.446;19.148;2023-02-11T06:09:16;-2.51;69.45
71304;DHT22;59091;47.446;19.148;2023-02-11T06:11:42;-2.51;69.47
71304;DHT22;59091;47.446;19.148;2023-02-11T06:14:07;-2.48;69.52
71304;DHT22;59091;47.446;19.148;2023-02-11T06:16:34;-2.46;69.61
71304;DHT22;59091;47.446;19.148;2023-02-11T06:18:59;-2.48;69.68
71304;DHT22;59091;47.446;19.148;2023-02-11T06:21:24;-2.41;69.49
71304;DHT22;59091;47.446;19.148;2023-02-11T06:23:50;-2.32;71.44
71304;DHT22;59091;47.446;19.148;2023-02-11T06:26:18;-2.15;76.15
71304;DHT22;59091;47.446;19.148;2023-02-11T06:28:44;-2.13;72.05
71304;DHT22;59091;47.446;19.148;2023-02-11T06:31:10;-2.13;70.19
71304;DHT22;59091;47.446;19.148;2023-02-11T06:33:36;-2.10;69.95
71304;DHT22;59091;47.446;19.148;2023-02-11T06:36:03;-2.03;69.76
71304;DHT22;59091;47.446;19.148;2023-02-11T06:38:29;-2.00;69.78
71304;DHT22;59091;47.446;19.148;2023-02-11T06:40:54;-2.00;69.95
71304;DHT22;59091;47.446;19.148;2023-02-11T06:43:19;-1.97;70.15
71304;DHT22;59091;47.446;19.148;2023-02-11T06:45:51;-1.90;70.22
71304;DHT22;59091;47.446;19.148;2023-02-11T06:48:17;-1.81;70.51
71304;DHT22;59091;47.446;19.148;2023-02-11T06:50:42;-1.70;72.89
71304;DHT22;59091;47.446;19.148;2023-02-11T06:53:07;-1.67;71.56
71304;DHT22;59091;47.446;19.148;2023-02-11T06:55:34;-1.60;70.62
71304;DHT22;59091;47.446;19.148;2023-02-11T06:57:59;-1.55;70.25
71304;DHT22;59091;47.446;19.148;2023-02-11T07:00:25;-0.81;87.44
71304;DHT22;59091;47.446;19.148;2023-02-11T07:02:51;-0.77;80.34
71304;DHT22;59091;47.446;19.148;2023-02-11T07:05:16;-0.91;74.90
71304;DHT22;59091;47.446;19.148;2023-02-11T07:07:42;-0.94;70.60
71304;DHT22;59091;47.446;19.148;2023-02-11T07:10:07;-0.97;69.45
71304;DHT22;59091;47.446;19.148;2023-02-11T07:12:33;-1.01;69.28
71304;DHT22;59091;47.446;19.148;2023-02-11T07:14:58;-0.98;69.21
71304;DHT22;59091;47.446;19.148;2023-02-11T07:17:24;-0.97;69.06
71304;DHT22;59091;47.446;19.148;2023-02-11T07:19:49;-0.94;68.88
71304;DHT22;59091;47.446;19.148;2023-02-11T07:22:14;-0.94;68.91
71304;DHT22;59091;47.446;19.148;2023-02-11T07:24:40;-0.88;68.74
71304;DHT22;59091;47.446;19.148;2023-02-11T07:27:06;-0.80;70.83
71304;DHT22;59091;47.446;19.148;2023-02-11T07:29:31;-0.68;69.12
71304;DHT22;59091;47.446;19.148;2023-02-11T07:31:57;-0.61;68.69
71304;DHT22;59091;47.446;19.148;2023-02-11T07:34:23;-0.49;68.27
71304;DHT22;59091;47.446;19.148;2023-02-11T07:36:49;0.08;80.74
71304;DHT22;59091;47.446;19.148;2023-02-11T07:39:14;0.19;75.26
71304;DHT22;59091;47.446;19.148;2023-02-11T07:41:40;0.30;70.12
71304;DHT22;59091;47.446;19.148;2023-02-11T07:44:06;0.39;67.55
71304;DHT22;59091;47.446;19.148;2023-02-11T07:46:31;0.50;67.08
71304;DHT22;59091;47.446;19.148;2023-02-11T07:48:59;0.62;66.64
71304;DHT22;59091;47.446;19.148;2023-02-11T07:51:28;0.70;66.52
71304;DHT22;59091;47.446;19.148;2023-02-11T07:53:56;0.81;66.12
71304;DHT22;59091;47.446;19.148;2023-02-11T07:56:22;0.95;65.87
71304;DHT22;59091;47.446;19.148;2023-02-11T07:58:48;0.91;66.38
71304;DHT22;59091;47.446;19.148;2023-02-11T08:01:16;1.11;65.84
71304;DHT22;59091;47.446;19.148;2023-02-11T08:03:42;1.24;65.67
71304;DHT22;59091;47.446;19.148;2023-02-11T08:06:10;1.36;65.47
71304;DHT22;59091;47.446;19.148;2023-02-11T08:08:36;1.58;68.41
71304;DHT22;59091;47.446;19.148;2023-02-11T08:11:09;1.62;65.58
71304;DHT22;59091;47.446;19.148;2023-02-11T08:13:35;1.72;65.46
71304;DHT22;59091;47.446;19.148;2023-02-11T08:16:01;1.85;65.33
71304;DHT22;59091;47.446;19.148;2023-02-11T08:18:26;2.59;74.43
71304;DHT22;59091;47.446;19.148;2023-02-11T08:20:51;2.62;66.99
71304;DHT22;59091;47.446;19.148;2023-02-11T08:23:17;2.65;64.56
71304;DHT22;59091;47.446;19.148;2023-02-11T08:25:43;2.71;63.84
71304;DHT22;59091;47.446;19.148;2023-02-11T08:28:08;2.75;63.58
71304;DHT22;59091;47.446;19.148;2023-02-11T08:30:34;2.74;63.32
71304;DHT22;59091;47.446;19.148;2023-02-11T08:33:00;2.82;63.11
71304;DHT22;59091;47.446;19.148;2023-02-11T08:35:25;2.81;62.50
71304;DHT22;59091;47.446;19.148;2023-02-11T08:37:51;2.88;62.10
71304;DHT22;59091;47.446;19.148;2023-02-11T08:40:17;2.96;62.07
71304;DHT22;59091;47.446;19.148;2023-02-11T08:42:42;3.08;61.47
71304;DHT22;59091;47.446;19.148;2023-02-11T08:45:08;3.09;61.11
71304;DHT22;59091;47.446;19.148;2023-02-11T08:47:35;3.12;61.10
71304;DHT22;59091;47.446;19.148;2023-02-11T08:50:01;3.09;60.84
71304;DHT22;59091;47.446;19.148;2023-02-11T08:52:26;3.16;60.51
71304;DHT22;59091;47.446;19.148;2023-02-11T08:54:52;3.19;59.72
71304;DHT22;59091;47.446;19.148;2023-02-11T08:57:17;3.29;59.69
71304;DHT22;59091;47.446;19.148;2023-02-11T08:59:43;3.19;59.68
71304;DHT22;59091;47.446;19.148;2023-02-11T09:02:12;3.18;60.00
71304;DHT22;59091;47.446;19.148;2023-02-11T09:04:37;3.19;60.35
71304;DHT22;59091;47.446;19.148;2023-02-11T09:07:03;3.41;62.87
71304;DHT22;59091;47.446;19.148;2023-02-11T09:09:29;3.56;61.40
71304;DHT22;59091;47.446;19.148;2023-02-11T09:11:54;3.67;60.52
71304;DHT22;59091;47.446;19.148;2023-02-11T09:14:22;3.46;59.89
71304;DHT22;59091;47.446;19.148;2023-02-11T09:16:49;3.71;62.05
71304;DHT22;59091;47.446;19.148;2023-02-11T09:19:16;3.60;59.79
71304;DHT22;59091;47.446;19.148;2023-02-11T09:21:41;3.36;59.72
71304;DHT22;59091;47.446;19.148;2023-02-11T09:24:07;3.40;59.71
71304;DHT22;59091;47.446;19.148;2023-02-11T09:26:34;3.29;60.04
71304;DHT22;59091;47.446;19.148;2023-02-11T09:29:01;3.39;60.68
71304;DHT22;59091;47.446;19.148;2023-02-11T09:31:28;3.51;60.03
71304;DHT22;59091;47.446;19.148;2023-02-11T09:33:57;3.56;59.89
71304;DHT22;59091;47.446;19.148;2023-02-11T09:36:25;3.94;61.23
71304;DHT22;59091;47.446;19.148;2023-02-11T09:38:52;4.19;59.28
71304;DHT22;59091;47.446;19.148;2023-02-11T09:43:52;4.35;57.36
71304;DHT22;59091;47.446;19.148;2023-02-11T09:46:18;4.67;61.09
71304;DHT22;59091;47.446;19.148;2023-02-11T09:48:48;4.70;56.84
71304;DHT22;59091;47.446;19.148;2023-02-11T09:51:40;5.42;73.36
71304;DHT22;59091;47.446;19.148;2023-02-11T09:54:18;5.45;55.93
71304;DHT22;59091;47.446;19.148;2023-02-11T09:56:46;5.69;59.69
71304;DHT22;59091;47.446;19.148;2023-02-11T09:59:15;5.86;56.25
71304;DHT22;59091;47.446;19.148;2023-02-11T10:02:01;5.89;52.11
71304;DHT22;59091;47.446;19.148;2023-02-11T10:07:05;5.82;51.32
71304;DHT22;59091;47.446;19.148;2023-02-11T10:14:59;5.60;50.72
71304;DHT22;59091;47.446;19.148;2023-02-11T10:17:37;5.86;50.55
71304;DHT22;59091;47.446;19.148;2023-02-11T10:22:43;6.71;50.09
71304;DHT22;59091;47.446;19.148;2023-02-11T10:25:34;6.28;48.73
71304;DHT22;59091;47.446;19.148;2023-02-11T10:28:10;6.21;49.15
71304;DHT22;59091;47.446;19.148;2023-02-11T10:30:42;6.30;49.60
71304;DHT22;59091;47.446;19.148;2023-02-11T10:35:45;6.21;48.91
71304;DHT22;59091;47.446;19.148;2023-02-11T10:38:11;6.13;50.01
71304;DHT22;59091;47.446;19.148;2023-02-11T10:40:36;6.00;49.52
71304;DHT22;59091;47.446;19.148;2023-02-11T10:43:05;6.18;50.04
71304;DHT22;59091;47.446;19.148;2023-02-11T10:45:44;5.97;49.42
71304;DHT22;59091;47.446;19.148;2023-02-11T10:48:39;6.09;50.20
71304;DHT22;59091;47.446;19.148;2023-02-11T10:51:29;6.09;50.18
71304;DHT22;59091;47.446;19.148;2023-02-11T10:56:31;6.63;72.29
71304;DHT22;59091;47.446;19.148;2023-02-11T10:59:04;6.63;50.95
71304;DHT22;59091;47.446;19.148;2023-02-11T11:01:44;6.48;49.74
71304;DHT22;59091;47.446;19.148;2023-02-11T11:07:17;6.54;49.09
71304;DHT22;59091;47.446;19.148;2023-02-11T11:17:33;6.78;48.82
71304;DHT22;59091;47.446;19.148;2023-02-11T11:20:22;6.77;48.66
71304;DHT22;59091;47.446;19.148;2023-02-11T11:22:50;6.87;48.44
71304;DHT22;59091;47.446;19.148;2023-02-11T11:27:50;6.99;48.00
71304;DHT22;59091;47.446;19.148;2023-02-11T11:30:17;7.06;51.44
71304;DHT22;59091;47.446;19.148;2023-02-11T11:32:43;7.19;48.47
71304;DHT22;59091;47.446;19.148;2023-02-11T11:35:29;6.79;47.96
71304;DHT22;59091;47.446;19.148;2023-02-11T11:38:01;6.84;48.44
71304;DHT22;59091;47.446;19.148;2023-02-11T11:40:29;6.95;48.65
71304;DHT22;59091;47.446;19.148;2023-02-11T11:43:18;6.93;49.06
71304;DHT22;59091;47.446;19.148;2023-02-11T11:45:55;7.03;48.60
71304;DHT22;59091;47.446;19.148;2023-02-11T11:48:45;6.95;47.72
71304;DHT22;59091;47.446;19.148;2023-02-11T11:51:10;6.98;47.38
71304;DHT22;59091;47.446;19.148;2023-02-11T11:53:40;6.92;47.33
71304;DHT22;59091;47.446;19.148;2023-02-11T11:56:13;6.91;46.80
71304;DHT22;59091;47.446;19.148;2023-02-11T11:58:39;6.98;46.90
71304;DHT22;59091;47.446;19.148;2023-02-11T12:09:08;7.74;46.33
71304;DHT22;59091;47.446;19.148;2023-02-11T12:15:01;7.82;45.38
71304;DHT22;59091;47.446;19.148;2023-02-11T12:20:51;7.56;45.48
71304;DHT22;59091;47.446;19.148;2023-02-11T12:23:44;7.73;46.01
71304;DHT22;59091;47.446;19.148;2023-02-11T12:26:18;7.63;46.01
71304;DHT22;59091;47.446;19.148;2023-02-11T12:39:55;8.05;45.40
71304;DHT22;59091;47.446;19.148;2023-02-11T12:42:31;8.16;45.08
71304;DHT22;59091;47.446;19.148;2023-02-11T12:54:02;8.64;42.24
71304;DHT22;59091;47.446;19.148;2023-02-11T12:56:43;8.80;42.00
71304;DHT22;59091;47.446;19.148;2023-02-11T12:59:39;8.83;41.22
71304;DHT22;59091;47.446;19.148;2023-02-11T13:02:05;8.74;40.42
71304;DHT22;59091;47.446;19.148;2023-02-11T13:04:38;8.69;39.61
71304;DHT22;59091;47.446;19.148;2023-02-11T13:07:22;8.74;40.35
71304;DHT22;59091;47.446;19.148;2023-02-11T13:10:02;8.72;39.37
71304;DHT22;59091;47.446;19.148;2023-02-11T13:12:32;8.69;39.57
71304;DHT22;59091;47.446;19.148;2023-02-11T13:15:18;8.54;39.55
71304;DHT22;59091;47.446;19.148;2023-02-11T13:23:38;8.49;39.39
71304;DHT22;59091;47.446;19.148;2023-02-11T13:29:25;8.73;39.89
71304;DHT22;59091;47.446;19.148;2023-02-11T13:32:12;8.97;38.42
71304;DHT22;59091;47.446;19.148;2023-02-11T13:37:25;9.10;38.02
71304;DHT22;59091;47.446;19.148;2023-02-11T13:40:05;8.96;37.15
71304;DHT22;59091;47.446;19.148;2023-02-11T13:42:33;8.93;36.23
71304;DHT22;59091;47.446;19.148;2023-02-11T13:44:59;8.88;36.56
71304;DHT22;59091;47.446;19.148;2023-02-11T13:47:30;9.10;43.57
71304;DHT22;59091;47.446;19.148;2023-02-11T13:49:59;8.97;36.36
71304;DHT22;59091;47.446;19.148;2023-02-11T13:52:36;9.00;39.27
71304;DHT22;59091;47.446;19.148;2023-02-11T13:55:14;8.91;36.15
71304;DHT22;59091;47.446;19.148;2023-02-11T13:57:44;8.91;35.75
71304;DHT22;59091;47.446;19.148;2023-02-11T14:06:18;8.72;36.01
71304;DHT22;59091;47.446;19.148;2023-02-11T14:14:26;8.63;36.54
71304;DHT22;59091;47.446;19.148;2023-02-11T14:19:44;8.72;36.68
71304;DHT22;59091;47.446;19.148;2023-02-11T14:22:18;8.84;36.90
71304;DHT22;59091;47.446;19.148;2023-02-11T14:25:01;8.69;36.51
71304;DHT22;59091;47.446;19.148;2023-02-11T14:30:19;8.79;36.91
71304;DHT22;59091;47.446;19.148;2023-02-11T14:33:20;8.64;36.83
71304;DHT22;59091;47.446;19.148;2023-02-11T14:36:04;8.59;37.04
71304;DHT22;59091;47.446;19.148;2023-02-11T14:41:23;8.69;37.17
71304;DHT22;59091;47.446;19.148;2023-02-11T14:43:52;8.54;37.38
71304;DHT22;59091;47.446;19.148;2023-02-11T14:46:19;8.64;37.29
71304;DHT22;59091;47.446;19.148;2023-02-11T14:48:51;8.67;37.31
71304;DHT22;59091;47.446;19.148;2023-02-11T14:51:24;8.77;37.16
71304;DHT22;59091;47.446;19.148;2023-02-11T14:53:57;8.87;37.28
71304;DHT22;59091;47.446;19.148;2023-02-11T14:56:27;8.91;37.48
71304;DHT22;59091;47.446;19.148;2023-02-11T14:58:56;8.66;37.56
71304;DHT22;59091;47.446;19.148;2023-02-11T15:01:30;8.72;38.07
71304;DHT22;59091;47.446;19.148;2023-02-11T15:04:00;8.64;37.90
71304;DHT22;59091;47.446;19.148;2023-02-11T15:06:37;8.57;37.66
71304;DHT22;59091;47.446;19.148;2023-02-11T15:09:06;8.67;37.96
71304;DHT22;59091;47.446;19.148;2023-02-11T15:11:38;8.62;40.93
71304;DHT22;59091;47.446;19.148;2023-02-11T15:14:27;8.50;37.89
71304;DHT22;59091;47.446;19.148;2023-02-11T15:16:55;8.57;38.56
71304;DHT22;59091;47.446;19.148;2023-02-11T15:19:48;8.21;38.63
71304;DHT22;59091;47.446;19.148;2023-02-11T15:22:19;8.24;39.32
71304;DHT22;59091;47.446;19.148;2023-02-11T15:25:10;8.03;39.72
71304;DHT22;59091;47.446;19.148;2023-02-11T15:27:38;8.01;39.92
71304;DHT22;59091;47.446;19.148;2023-02-11T15:30:22;7.91;39.86
71304;DHT22;59091;47.446;19.148;2023-02-11T15:32:59;8.02;40.12
71304;DHT22;59091;47.446;19.148;2023-02-11T15:35:35;8.05;40.15
71304;DHT22;59091;47.446;19.148;2023-02-11T15:38:01;8.26;45.48
71304;DHT22;59091;47.446;19.148;2023-02-11T15:40:29;8.22;39.92
71304;DHT22;59091;47.446;19.148;2023-02-11T15:43:01;8.12;39.87
71304;DHT22;59091;47.446;19.148;2023-02-11T15:45:41;8.05;41.37
71304;DHT22;59091;47.446;19.148;2023-02-11T15:48:15;8.02;40.26
71304;DHT22;59091;47.446;19.148;2023-02-11T15:50:42;7.74;40.88
71304;DHT22;59091;47.446;19.148;2023-02-11T15:53:26;7.80;40.83
71304;DHT22;59091;47.446;19.148;2023-02-11T15:56:01;7.77;41.11
71304;DHT22;59091;47.446;19.148;2023-02-11T15:58:27;7.82;42.66
71304;DHT22;59091;47.446;19.148;2023-02-11T16:00:53;7.80;41.54
71304;DHT22;59091;47.446;19.148;2023-02-11T16:03:25;7.74;41.43
71304;DHT22;59091;47.446;19.148;2023-02-11T16:05:53;7.69;41.74
71304;DHT22;59091;47.446;19.148;2023-02-11T16:08:26;7.56;41.83
71304;DHT22;59091;47.446;19.148;2023-02-11T16:10:59;7.50;42.06
71304;DHT22;59091;47.446;19.148;2023-02-11T16:13:27;7.37;45.48
71304;DHT22;59091;47.446;19.148;2023-02-11T16:15:57;7.54;43.66
71304;DHT22;59091;47.446;19.148;2023-02-11T16:18:36;7.56;42.79
71304;DHT22;59091;47.446;19.148;2023-02-11T16:21:03;7.53;42.94
71304;DHT22;59091;47.446;19.148;2023-02-11T16:23:33;7.37;43.20
71304;DHT22;59091;47.446;19.148;2023-02-11T16:26:05;7.37;43.28
71304;DHT22;59091;47.446;19.148;2023-02-11T16:28:33;7.29;49.56
71304;DHT22;59091;47.446;19.148;2023-02-11T16:30:59;7.53;50.07
71304;DHT22;59091;47.446;19.148;2023-02-11T16:33:25;7.53;43.90
71304;DHT22;59091;47.446;19.148;2023-02-11T16:35:50;7.50;43.64
71304;DHT22;59091;47.446;19.148;2023-02-11T16:38:17;7.49;43.53
71304;DHT22;59091;47.446;19.148;2023-02-11T16:40:43;7.33;43.74
71304;DHT22;59091;47.446;19.148;2023-02-11T16:43:10;7.20;44.05
71304;DHT22;59091;47.446;19.148;2023-02-11T16:45:37;7.26;44.02
71304;DHT22;59091;47.446;19.148;2023-02-11T16:48:05;7.02;44.12
71304;DHT22;59091;47.446;19.148;2023-02-11T16:50:33;6.92;44.75
71304;DHT22;59091;47.446;19.148;2023-02-11T16:52:58;6.85;44.77
71304;DHT22;59091;47.446;19.148;2023-02-11T16:55:26;6.74;44.94
71304;DHT22;59091;47.446;19.148;2023-02-11T16:57:52;6.85;44.77
71304;DHT22;59091;47.446;19.148;2023-02-11T17:00:18;6.92;44.73
71304;DHT22;59091;47.446;19.148;2023-02-11T17:02:43;6.89;44.73
71304;DHT22;59091;47.446;19.148;2023-02-11T17:05:20;6.85;44.67
71304;DHT22;59091;47.446;19.148;2023-02-11T17:07:47;6.69;45.28
71304;DHT22;59091;47.446;19.148;2023-02-11T17:10:14;6.74;44.99
71304;DHT22;59091;47.446;19.148;2023-02-11T17:12:40;6.77;45.14
71304;DHT22;59091;47.446;19.148;2023-02-11T17:15:06;6.84;44.82
71304;DHT22;59091;47.446;19.148;2023-02-11T17:17:31;6.87;44.71
71304;DHT22;59091;47.446;19.148;2023-02-11T17:19:56;6.93;44.58
71304;DHT22;59091;47.446;19.148;2023-02-11T17:22:22;7.02;44.59
71304;DHT22;59091;47.446;19.148;2023-02-11T17:24:47;7.06;44.59
71304;DHT22;59091;47.446;19.148;2023-02-11T17:27:13;7.10;44.58
71304;DHT22;59091;47.446;19.148;2023-02-11T17:29:39;7.13;44.55
71304;DHT22;59091;47.446;19.148;2023-02-11T17:32:05;6.98;44.99
71304;DHT22;59091;47.446;19.148;2023-02-11T17:34:30;6.93;46.52
71304;DHT22;59091;47.446;19.148;2023-02-11T17:36:56;6.92;45.76
71304;DHT22;59091;47.446;19.148;2023-02-11T17:39:24;6.91;46.32
71304;DHT22;59091;47.446;19.148;2023-02-11T17:41:50;6.93;46.49
71304;DHT22;59091;47.446;19.148;2023-02-11T17:44:15;6.99;45.79
71304;DHT22;59091;47.446;19.148;2023-02-11T17:46:42;6.91;45.72